sensor_id;sensor_type;location;lat;lon;timestamp;pressure;altitude;pressure_sealevel;temperature;humidity
73671;BME280;61968;48.178;11.566;2023-04-05T00:02:14;96157.34;;;2.68;29.46
73671;BME280;61968;48.178;11.566;2023-04-05T00:04:44;96160.13;;;2.67;28.81
73671;BME280;61968;48.178;11.566;2023-04-05T00:07:17;96153.94;;;2.68;29.31
73671;BME280;61968;48.178;11.566;2023-04-05T00:09:46;96157.00;;;2.71;29.13
73671;BME280;61968;48.178;11.566;2023-04-05T00:12:12;96152.63;;;2.72;29.15
73671;BME280;61968;48.178;11.566;2023-04-05T00:14:39;96150.69;;;2.66;28.75
73671;BME280;61968;48.178;11.566;2023-04-05T00:17:08;96151.66;;;2.64;28.62
73671;BME280;61968;48.178;11.566;2023-04-05T00:19:35;96148.75;;;2.59;29.33
73671;BME280;61968;48.178;11.566;2023-04-05T00:22:03;96148.06;;;2.66;28.84
73671;BME280;61968;48.178;11.566;2023-04-05T00:24:30;96149.09;;;2.56;28.89
73671;BME280;61968;48.178;11.566;2023-04-05T00:26:58;96139.28;;;2.58;29.47
73671;BME280;61968;48.178;11.566;2023-04-05T00:29:25;96136.31;;;2.61;29.39
73671;BME280;61968;48.178;11.566;2023-04-05T00:31:51;96137.63;;;2.66;28.94
73671;BME280;61968;48.178;11.566;2023-04-05T00:34:18;96134.84;;;2.67;29.69
73671;BME280;61968;48.178;11.566;2023-04-05T00:36:44;96141.06;;;2.66;29.65
73671;BME280;61968;48.178;11.566;2023-04-05T00:39:12;96133.56;;;2.63;29.52
73671;BME280;61968;48.178;11.566;2023-04-05T00:41:39;96135.19;;;2.64;29.48
73671;BME280;61968;48.178;11.566;2023-04-05T00:44:05;96130.75;;;2.64;29.66
73671;BME280;61968;48.178;11.566;2023-04-05T00:46:33;96125.88;;;2.61;29.79
73671;BME280;61968;48.178;11.566;2023-04-05T00:49:00;96128.97;;;2.65;29.68
73671;BME280;61968;48.178;11.566;2023-04-05T00:51:27;96124.28;;;2.60;29.36
73671;BME280;61968;48.178;11.566;2023-04-05T00:53:55;96124.09;;;2.62;30.07
73671;BME280;61968;48.178;11.566;2023-04-05T00:56:23;96118.06;;;2.61;29.88
73671;BME280;61968;48.178;11.566;2023-04-05T00:58:50;96125.06;;;2.61;29.72
73671;BME280;61968;48.178;11.566;2023-04-05T01:01:18;96125.41;;;2.58;29.75
73671;BME280;61968;48.178;11.566;2023-04-05T01:03:49;96124.44;;;2.59;29.58
73671;BME280;61968;48.178;11.566;2023-04-05T01:06:26;96122.00;;;2.57;29.92
73671;BME280;61968;48.178;11.566;2023-04-05T01:08:59;96121.34;;;2.55;30.04
73671;BME280;61968;48.178;11.566;2023-04-05T01:11:32;96109.94;;;2.56;29.79
73671;BME280;61968;48.178;11.566;2023-04-05T01:14:00;96112.38;;;2.58;29.81
73671;BME280;61968;48.178;11.566;2023-04-05T01:16:27;96106.34;;;2.57;29.28
73671;BME280;61968;48.178;11.566;2023-04-05T01:18:54;96105.53;;;2.57;29.97
73671;BME280;61968;48.178;11.566;2023-04-05T01:21:47;96100.00;;;2.52;29.41
73671;BME280;61968;48.178;11.566;2023-04-05T01:24:29;96098.53;;;2.49;29.80
73671;BME280;61968;48.178;11.566;2023-04-05T01:27:06;96098.75;;;2.39;29.73
73671;BME280;61968;48.178;11.566;2023-04-05T01:29:47;96093.56;;;2.31;30.25
73671;BME280;61968;48.178;11.566;2023-04-05T01:32:22;96093.22;;;2.34;30.21
73671;BME280;61968;48.178;11.566;2023-04-05T01:34:53;96089.13;;;2.32;30.11
73671;BME280;61968;48.178;11.566;2023-04-05T01:37:25;96090.94;;;2.31;30.72
73671;BME280;61968;48.178;11.566;2023-04-05T01:39:52;96088.19;;;2.33;30.70
73671;BME280;61968;48.178;11.566;2023-04-05T01:42:24;96085.59;;;2.25;30.46
73671;BME280;61968;48.178;11.566;2023-04-05T01:44:53;96083.44;;;2.28;30.32
73671;BME280;61968;48.178;11.566;2023-04-05T01:47:20;96085.09;;;2.29;30.36
73671;BME280;61968;48.178;11.566;2023-04-05T01:49:46;96079.69;;;2.31;30.02
73671;BME280;61968;48.178;11.566;2023-04-05T01:52:13;96078.06;;;2.30;30.61
73671;BME280;61968;48.178;11.566;2023-04-05T01:54:40;96073.53;;;2.24;30.55
73671;BME280;61968;48.178;11.566;2023-04-05T01:57:06;96075.50;;;2.22;30.82
73671;BME280;61968;48.178;11.566;2023-04-05T01:59:33;96076.50;;;2.21;30.68
73671;BME280;61968;48.178;11.566;2023-04-05T02:02:00;96075.00;;;2.26;31.19
73671;BME280;61968;48.178;11.566;2023-04-05T02:04:27;96069.78;;;2.26;31.02
73671;BME280;61968;48.178;11.566;2023-04-05T02:06:53;96073.34;;;2.25;30.96
73671;BME280;61968;48.178;11.566;2023-04-05T02:09:20;96070.75;;;2.25;30.91
73671;BME280;61968;48.178;11.566;2023-04-05T02:11:46;96063.72;;;2.26;30.23
73671;BME280;61968;48.178;11.566;2023-04-05T02:14:13;96070.59;;;2.27;30.26
73671;BME280;61968;48.178;11.566;2023-04-05T02:16:39;96067.00;;;2.28;30.99
73671;BME280;61968;48.178;11.566;2023-04-05T02:19:09;96068.59;;;2.29;30.96
73671;BME280;61968;48.178;11.566;2023-04-05T02:21:37;96064.06;;;2.23;30.88
73671;BME280;61968;48.178;11.566;2023-04-05T02:24:05;96066.69;;;2.23;30.75
73671;BME280;61968;48.178;11.566;2023-04-05T02:26:32;96066.38;;;2.17;31.46
73671;BME280;61968;48.178;11.566;2023-04-05T02:28:59;96057.91;;;2.15;31.36
73671;BME280;61968;48.178;11.566;2023-04-05T02:31:25;96059.84;;;2.13;31.54
73671;BME280;61968;48.178;11.566;2023-04-05T02:33:52;96058.72;;;2.16;31.58
73671;BME280;61968;48.178;11.566;2023-04-05T02:36:20;96057.91;;;2.15;31.72
73671;BME280;61968;48.178;11.566;2023-04-05T02:38:47;96052.69;;;2.15;30.88
73671;BME280;61968;48.178;11.566;2023-04-05T02:41:13;96054.66;;;2.13;30.98
73671;BME280;61968;48.178;11.566;2023-04-05T02:43:40;96058.09;;;2.14;31.42
73671;BME280;61968;48.178;11.566;2023-04-05T02:46:06;96050.94;;;2.08;30.98
73671;BME280;61968;48.178;11.566;2023-04-05T02:48:33;96051.28;;;2.05;31.24
73671;BME280;61968;48.178;11.566;2023-04-05T02:50:59;96045.56;;;2.01;31.16
73671;BME280;61968;48.178;11.566;2023-04-05T02:53:27;96048.84;;;1.95;31.64
73671;BME280;61968;48.178;11.566;2023-04-05T02:55:54;96045.91;;;1.98;32.07
73671;BME280;61968;48.178;11.566;2023-04-05T02:58:21;96035.47;;;1.98;31.40
73671;BME280;61968;48.178;11.566;2023-04-05T03:00:48;96036.00;;;1.93;32.09
73671;BME280;61968;48.178;11.566;2023-04-05T03:03:16;96040.41;;;1.93;32.13
73671;BME280;61968;48.178;11.566;2023-04-05T03:05:43;96040.41;;;1.93;32.13
73671;BME280;61968;48.178;11.566;2023-04-05T03:08:09;96044.63;;;1.94;32.02
73671;BME280;61968;48.178;11.566;2023-04-05T03:10:44;96045.63;;;1.85;31.75
73671;BME280;61968;48.178;11.566;2023-04-05T03:13:10;96040.72;;;1.90;31.95
73671;BME280;61968;48.178;11.566;2023-04-05T03:15:37;96036.31;;;1.90;32.40
73671;BME280;61968;48.178;11.566;2023-04-05T03:18:04;96032.59;;;1.85;31.89
73671;BME280;61968;48.178;11.566;2023-04-05T03:20:30;96029.97;;;1.85;32.42
73671;BME280;61968;48.178;11.566;2023-04-05T03:22:58;96029.66;;;1.88;32.30
73671;BME280;61968;48.178;11.566;2023-04-05T03:25:24;96033.25;;;1.87;32.55
73671;BME280;61968;48.178;11.566;2023-04-05T03:27:52;96033.59;;;1.84;32.72
73671;BME280;61968;48.178;11.566;2023-04-05T03:30:19;96029.50;;;1.81;32.83
73671;BME280;61968;48.178;11.566;2023-04-05T03:32:46;96031.97;;;1.75;32.64
73671;BME280;61968;48.178;11.566;2023-04-05T03:35:12;96030.38;;;1.65;32.45
73671;BME280;61968;48.178;11.566;2023-04-05T03:37:40;96034.09;;;1.71;32.15
73671;BME280;61968;48.178;11.566;2023-04-05T03:40:08;96029.38;;;1.66;32.14
73671;BME280;61968;48.178;11.566;2023-04-05T03:42:34;96028.84;;;2.27;39.42
73671;BME280;61968;48.178;11.566;2023-04-05T03:45:03;96027.44;;;4.64;34.22
73671;BME280;61968;48.178;11.566;2023-04-05T03:47:30;96022.56;;;5.75;32.48
73671;BME280;61968;48.178;11.566;2023-04-05T03:49:57;96027.78;;;6.45;31.26
73671;BME280;61968;48.178;11.566;2023-04-05T03:52:23;96018.81;;;7.01;29.95
73671;BME280;61968;48.178;11.566;2023-04-05T03:54:49;96022.88;;;7.43;28.69
73671;BME280;61968;48.178;11.566;2023-04-05T03:57:16;96022.31;;;7.68;28.23
73671;BME280;61968;48.178;11.566;2023-04-05T03:59:43;96024.28;;;7.99;26.84
73671;BME280;61968;48.178;11.566;2023-04-05T04:02:11;96022.69;;;7.25;25.04
73671;BME280;61968;48.178;11.566;2023-04-05T04:04:37;96026.66;;;6.19;26.32
73671;BME280;61968;48.178;11.566;2023-04-05T04:07:04;96018.72;;;5.43;26.94
73671;BME280;61968;48.178;11.566;2023-04-05T04:09:30;96029.94;;;4.87;27.91
73671;BME280;61968;48.178;11.566;2023-04-05T04:11:56;96021.72;;;4.39;28.39
73671;BME280;61968;48.178;11.566;2023-04-05T04:14:23;96032.00;;;4.05;29.00
73671;BME280;61968;48.178;11.566;2023-04-05T04:16:50;96039.19;;;3.73;38.78
73671;BME280;61968;48.178;11.566;2023-04-05T04:19:19;96020.59;;;6.73;33.41
73671;BME280;61968;48.178;11.566;2023-04-05T04:21:45;96021.25;;;8.53;29.39
73671;BME280;61968;48.178;11.566;2023-04-05T04:24:15;96021.28;;;8.92;23.97
73671;BME280;61968;48.178;11.566;2023-04-05T04:26:43;96012.78;;;7.33;25.01
73671;BME280;61968;48.178;11.566;2023-04-05T04:29:09;96026.03;;;6.17;26.25
73671;BME280;61968;48.178;11.566;2023-04-05T04:31:37;96017.69;;;5.37;27.30
73671;BME280;61968;48.178;11.566;2023-04-05T04:34:03;96025.03;;;4.84;28.17
73671;BME280;61968;48.178;11.566;2023-04-05T04:36:32;96031.56;;;4.37;28.82
73671;BME280;61968;48.178;11.566;2023-04-05T04:39:01;96021.69;;;4.03;29.21
73671;BME280;61968;48.178;11.566;2023-04-05T04:41:30;96025.66;;;3.69;29.98
73671;BME280;61968;48.178;11.566;2023-04-05T04:43:58;96016.56;;;3.50;30.10
73671;BME280;61968;48.178;11.566;2023-04-05T04:46:27;96017.41;;;3.28;30.46
73671;BME280;61968;48.178;11.566;2023-04-05T04:48:55;96017.22;;;3.06;30.94
73671;BME280;61968;48.178;11.566;2023-04-05T04:51:22;96020.47;;;2.85;31.18
73671;BME280;61968;48.178;11.566;2023-04-05T04:53:50;96026.44;;;2.71;30.93
73671;BME280;61968;48.178;11.566;2023-04-05T04:56:16;96028.94;;;2.64;31.34
73671;BME280;61968;48.178;11.566;2023-04-05T04:58:42;96020.34;;;2.56;31.29
73671;BME280;61968;48.178;11.566;2023-04-05T05:01:09;96025.78;;;2.46;31.59
73671;BME280;61968;48.178;11.566;2023-04-05T05:03:35;96023.59;;;2.35;31.88
73671;BME280;61968;48.178;11.566;2023-04-05T05:06:03;96019.38;;;2.26;31.94
73671;BME280;61968;48.178;11.566;2023-04-05T05:08:29;96023.97;;;2.24;31.66
73671;BME280;61968;48.178;11.566;2023-04-05T05:10:57;96029.19;;;2.24;31.52
73671;BME280;61968;48.178;11.566;2023-04-05T05:13:24;96021.06;;;2.10;32.18
73671;BME280;61968;48.178;11.566;2023-04-05T05:15:50;96022.06;;;2.09;32.09
73671;BME280;61968;48.178;11.566;2023-04-05T05:18:17;96017.53;;;2.03;32.70
73671;BME280;61968;48.178;11.566;2023-04-05T05:20:43;96018.81;;;2.07;32.60
73671;BME280;61968;48.178;11.566;2023-04-05T05:23:10;96018.66;;;2.01;32.28
73671;BME280;61968;48.178;11.566;2023-04-05T05:25:36;96023.78;;;2.56;32.40
73671;BME280;61968;48.178;11.566;2023-04-05T05:28:04;96023.53;;;2.43;32.25
73671;BME280;61968;48.178;11.566;2023-04-05T05:30:30;96029.31;;;2.30;32.01
73671;BME280;61968;48.178;11.566;2023-04-05T05:32:57;96016.63;;;2.19;31.79
73671;BME280;61968;48.178;11.566;2023-04-05T05:35:24;96020.72;;;2.13;31.87
73671;BME280;61968;48.178;11.566;2023-04-05T05:37:51;96018.81;;;2.07;31.41
73671;BME280;61968;48.178;11.566;2023-04-05T05:40:18;96027.28;;;2.09;31.95
73671;BME280;61968;48.178;11.566;2023-04-05T05:42:44;96027.94;;;2.11;32.25
73671;BME280;61968;48.178;11.566;2023-04-05T05:45:12;96032.16;;;2.12;31.81
73671;BME280;61968;48.178;11.566;2023-04-05T05:47:39;96035.75;;;2.11;33.44
73671;BME280;61968;48.178;11.566;2023-04-05T05:50:06;96040.59;;;2.23;32.38
73671;BME280;61968;48.178;11.566;2023-04-05T05:52:34;96043.13;;;2.08;31.58
73671;BME280;61968;48.178;11.566;2023-04-05T05:55:01;96046.56;;;2.00;32.01
73671;BME280;61968;48.178;11.566;2023-04-05T05:57:28;96039.41;;;1.94;31.37
73671;BME280;61968;48.178;11.566;2023-04-05T05:59:54;96048.22;;;1.93;31.52
73671;BME280;61968;48.178;11.566;2023-04-05T06:02:22;96046.91;;;1.89;32.00
73671;BME280;61968;48.178;11.566;2023-04-05T06:04:49;96044.41;;;2.04;31.56
73671;BME280;61968;48.178;11.566;2023-04-05T06:07:15;96047.03;;;2.04;31.70
73671;BME280;61968;48.178;11.566;2023-04-05T06:09:41;96055.97;;;2.09;31.81
73671;BME280;61968;48.178;11.566;2023-04-05T06:12:09;96042.47;;;2.06;31.13
73671;BME280;61968;48.178;11.566;2023-04-05T06:14:35;96049.16;;;2.00;31.32
73671;BME280;61968;48.178;11.566;2023-04-05T06:17:02;96055.38;;;1.99;30.87
73671;BME280;61968;48.178;11.566;2023-04-05T06:19:30;96051.09;;;2.06;30.77
73671;BME280;61968;48.178;11.566;2023-04-05T06:21:56;96057.78;;;2.01;31.05
73671;BME280;61968;48.178;11.566;2023-04-05T06:24:25;96056.91;;;2.16;30.80
73671;BME280;61968;48.178;11.566;2023-04-05T06:26:55;96066.19;;;2.19;30.69
73671;BME280;61968;48.178;11.566;2023-04-05T06:29:22;96055.97;;;2.09;31.10
73671;BME280;61968;48.178;11.566;2023-04-05T06:31:48;96060.03;;;2.12;31.28
73671;BME280;61968;48.178;11.566;2023-04-05T06:34:15;96057.25;;;2.13;30.20
73671;BME280;61968;48.178;11.566;2023-04-05T06:36:43;96054.34;;;2.08;30.46
73671;BME280;61968;48.178;11.566;2023-04-05T06:39:10;96052.75;;;1.99;30.97
73671;BME280;61968;48.178;11.566;2023-04-05T06:41:37;96050.16;;;1.99;30.97
73671;BME280;61968;48.178;11.566;2023-04-05T06:44:04;96048.72;;;1.80;29.96
73671;BME280;61968;48.178;11.566;2023-04-05T06:46:30;96057.00;;;1.92;30.33
73671;BME280;61968;48.178;11.566;2023-04-05T06:48:57;96058.31;;;1.88;30.85
73671;BME280;61968;48.178;11.566;2023-04-05T06:51:23;96049.84;;;1.86;30.57
73671;BME280;61968;48.178;11.566;2023-04-05T06:53:54;96048.88;;;1.87;31.00
73671;BME280;61968;48.178;11.566;2023-04-05T06:56:20;96053.31;;;1.78;30.70
73671;BME280;61968;48.178;11.566;2023-04-05T06:58:47;96044.34;;;1.81;31.53
73671;BME280;61968;48.178;11.566;2023-04-05T07:01:15;96051.66;;;1.85;31.02
73671;BME280;61968;48.178;11.566;2023-04-05T07:03:41;96048.88;;;1.87;31.06
73671;BME280;61968;48.178;11.566;2023-04-05T07:06:08;96054.56;;;1.90;30.83
73671;BME280;61968;48.178;11.566;2023-04-05T07:08:36;96050.44;;;2.04;31.03
73671;BME280;61968;48.178;11.566;2023-04-05T07:11:03;96047.69;;;2.06;31.05
73671;BME280;61968;48.178;11.566;2023-04-05T07:13:31;96042.25;;;2.15;30.57
73671;BME280;61968;48.178;11.566;2023-04-05T07:16:01;96042.59;;;2.12;31.00
73671;BME280;61968;48.178;11.566;2023-04-05T07:18:28;96044.41;;;2.04;30.97
73671;BME280;61968;48.178;11.566;2023-04-05T07:20:56;96041.31;;;2.08;30.71
73671;BME280;61968;48.178;11.566;2023-04-05T07:23:26;96038.41;;;1.95;31.21
73671;BME280;61968;48.178;11.566;2023-04-05T07:25:52;96039.66;;;2.07;30.43
73671;BME280;61968;48.178;11.566;2023-04-05T07:28:20;96042.00;;;2.02;31.41
73671;BME280;61968;48.178;11.566;2023-04-05T07:30:47;96043.94;;;2.08;31.27
73671;BME280;61968;48.178;11.566;2023-04-05T07:33:14;96046.00;;;2.21;30.96
73671;BME280;61968;48.178;11.566;2023-04-05T07:35:40;96047.56;;;2.30;30.93
73671;BME280;61968;48.178;11.566;2023-04-05T07:38:07;96051.53;;;2.26;30.78
73671;BME280;61968;48.178;11.566;2023-04-05T07:40:35;96051.28;;;2.44;31.14
73671;BME280;61968;48.178;11.566;2023-04-05T07:43:01;96053.38;;;2.40;30.76
73671;BME280;61968;48.178;11.566;2023-04-05T07:45:29;96058.09;;;2.45;30.63
73671;BME280;61968;48.178;11.566;2023-04-05T07:47:56;96056.16;;;2.47;29.74
73671;BME280;61968;48.178;11.566;2023-04-05T07:50:22;96059.66;;;2.62;30.06
73671;BME280;61968;48.178;11.566;2023-04-05T07:52:49;96060.00;;;2.59;30.28
73671;BME280;61968;48.178;11.566;2023-04-05T07:55:15;96059.16;;;2.59;30.23
73671;BME280;61968;48.178;11.566;2023-04-05T07:57:41;96063.16;;;2.78;29.98
73671;BME280;61968;48.178;11.566;2023-04-05T08:00:09;96066.72;;;2.77;30.39
73671;BME280;61968;48.178;11.566;2023-04-05T08:02:38;96060.34;;;2.79;30.87
73671;BME280;61968;48.178;11.566;2023-04-05T08:05:06;96058.97;;;2.69;30.23
73671;BME280;61968;48.178;11.566;2023-04-05T08:07:32;96056.50;;;2.67;29.75
73671;BME280;61968;48.178;11.566;2023-04-05T08:09:59;96057.13;;;2.77;29.33
73671;BME280;61968;48.178;11.566;2023-04-05T08:12:26;96063.72;;;2.88;29.31
73671;BME280;61968;48.178;11.566;2023-04-05T08:14:52;96072.03;;;2.92;28.86
73671;BME280;61968;48.178;11.566;2023-04-05T08:17:19;96066.91;;;2.98;28.76
73671;BME280;61968;48.178;11.566;2023-04-05T08:19:46;96063.59;;;3.04;29.08
73671;BME280;61968;48.178;11.566;2023-04-05T08:22:13;96053.50;;;3.01;29.20
73671;BME280;61968;48.178;11.566;2023-04-05T08:24:40;96057.66;;;2.96;29.50
73671;BME280;61968;48.178;11.566;2023-04-05T08:27:07;96058.38;;;3.04;29.58
73671;BME280;61968;48.178;11.566;2023-04-05T08:29:33;96057.34;;;3.14;29.31
73671;BME280;61968;48.178;11.566;2023-04-05T08:32:00;96058.28;;;3.21;29.69
73671;BME280;61968;48.178;11.566;2023-04-05T08:34:26;96062.84;;;3.19;29.17
73671;BME280;61968;48.178;11.566;2023-04-05T08:36:58;96063.19;;;3.16;29.07
73671;BME280;61968;48.178;11.566;2023-04-05T08:39:25;96052.75;;;3.16;28.58
73671;BME280;61968;48.178;11.566;2023-04-05T08:41:58;96063.63;;;3.27;28.82
73671;BME280;61968;48.178;11.566;2023-04-05T08:44:29;96062.13;;;3.33;28.87
73671;BME280;61968;48.178;11.566;2023-04-05T08:46:58;96059.00;;;3.52;28.66
73671;BME280;61968;48.178;11.566;2023-04-05T08:49:25;96064.84;;;3.40;27.89
73671;BME280;61968;48.178;11.566;2023-04-05T08:51:52;96068.94;;;3.57;27.96
73671;BME280;61968;48.178;11.566;2023-04-05T08:54:19;96057.22;;;3.53;27.94
73671;BME280;61968;48.178;11.566;2023-04-05T08:56:46;96063.72;;;3.57;27.03
73671;BME280;61968;48.178;11.566;2023-04-05T08:59:15;96047.38;;;3.55;27.68
73671;BME280;61968;48.178;11.566;2023-04-05T09:01:44;96048.84;;;3.35;27.21
73671;BME280;61968;48.178;11.566;2023-04-05T09:04:18;96054.31;;;3.48;27.51
73671;BME280;61968;48.178;11.566;2023-04-05T09:06:46;96054.25;;;3.56;27.50
73671;BME280;61968;48.178;11.566;2023-04-05T09:09:15;96049.19;;;3.54;28.08
73671;BME280;61968;48.178;11.566;2023-04-05T09:11:43;96056.31;;;3.61;26.83
73671;BME280;61968;48.178;11.566;2023-04-05T09:14:10;96051.28;;;3.74;27.04
73671;BME280;61968;48.178;11.566;2023-04-05T09:16:39;96049.72;;;3.65;26.35
73671;BME280;61968;48.178;11.566;2023-04-05T09:19:07;96055.88;;;3.72;26.95
73671;BME280;61968;48.178;11.566;2023-04-05T09:21:58;96055.78;;;3.80;25.89
73671;BME280;61968;48.178;11.566;2023-04-05T09:24:32;96054.44;;;3.84;26.49
73671;BME280;61968;48.178;11.566;2023-04-05T09:27:07;96051.56;;;3.79;26.28
73671;BME280;61968;48.178;11.566;2023-04-05T09:29:34;96049.00;;;3.71;26.34
73671;BME280;61968;48.178;11.566;2023-04-05T09:32:01;96049.03;;;3.56;26.15
73671;BME280;61968;48.178;11.566;2023-04-05T09:34:29;96052.19;;;3.66;26.47
73671;BME280;61968;48.178;11.566;2023-04-05T09:36:56;96052.47;;;3.86;25.59
73671;BME280;61968;48.178;11.566;2023-04-05T09:39:26;96055.34;;;3.91;25.17
73671;BME280;61968;48.178;11.566;2023-04-05T09:42:03;96050.47;;;3.88;24.50
73671;BME280;61968;48.178;11.566;2023-04-05T09:44:50;96051.19;;;3.82;24.63
73671;BME280;61968;48.178;11.566;2023-04-05T09:47:17;96050.19;;;3.98;25.58
73671;BME280;61968;48.178;11.566;2023-04-05T09:49:44;96048.13;;;3.78;24.82
73671;BME280;61968;48.178;11.566;2023-04-05T09:52:18;96053.53;;;3.77;25.62
73671;BME280;61968;48.178;11.566;2023-04-05T09:54:45;96052.66;;;3.99;26.22
73671;BME280;61968;48.178;11.566;2023-04-05T09:57:11;96049.59;;;4.11;26.42
73671;BME280;61968;48.178;11.566;2023-04-05T09:59:38;96045.50;;;4.23;26.08
73671;BME280;61968;48.178;11.566;2023-04-05T10:02:06;96052.63;;;4.29;26.25
73671;BME280;61968;48.178;11.566;2023-04-05T10:04:37;96053.41;;;4.44;26.08
73671;BME280;61968;48.178;11.566;2023-04-05T10:07:05;96046.00;;;4.48;26.59
73671;BME280;61968;48.178;11.566;2023-04-05T10:09:32;96044.88;;;4.21;24.73
73671;BME280;61968;48.178;11.566;2023-04-05T10:11:59;96040.16;;;4.16;25.77
73671;BME280;61968;48.178;11.566;2023-04-05T10:14:26;96036.38;;;4.19;25.80
73671;BME280;61968;48.178;11.566;2023-04-05T10:16:59;96039.06;;;4.40;25.17
73671;BME280;61968;48.178;11.566;2023-04-05T10:19:44;96039.53;;;4.44;25.54
73671;BME280;61968;48.178;11.566;2023-04-05T10:22:19;96045.50;;;4.38;25.91
73671;BME280;61968;48.178;11.566;2023-04-05T10:24:50;96042.59;;;4.48;25.13
73671;BME280;61968;48.178;11.566;2023-04-05T10:27:21;96036.19;;;4.35;25.56
73671;BME280;61968;48.178;11.566;2023-04-05T10:29:50;96031.41;;;4.24;26.21
73671;BME280;61968;48.178;11.566;2023-04-05T10:32:29;96027.44;;;4.28;25.56
73671;BME280;61968;48.178;11.566;2023-04-05T10:35:05;96031.78;;;4.36;25.69
73671;BME280;61968;48.178;11.566;2023-04-05T10:37:40;96026.03;;;4.26;24.55
73671;BME280;61968;48.178;11.566;2023-04-05T10:40:13;96029.97;;;4.36;24.86
73671;BME280;61968;48.178;11.566;2023-04-05T10:42:41;96029.75;;;4.02;24.54
73671;BME280;61968;48.178;11.566;2023-04-05T10:45:11;96033.75;;;4.19;25.23
73671;BME280;61968;48.178;11.566;2023-04-05T10:47:48;96029.41;;;4.41;25.61
73671;BME280;61968;48.178;11.566;2023-04-05T10:50:21;96031.47;;;4.45;25.16
73671;BME280;61968;48.178;11.566;2023-04-05T10:52:48;96019.38;;;4.44;25.04
73671;BME280;61968;48.178;11.566;2023-04-05T10:55:16;96018.88;;;4.56;25.11
73671;BME280;61968;48.178;11.566;2023-04-05T10:57:44;96020.59;;;4.63;24.82
73671;BME280;61968;48.178;11.566;2023-04-05T11:00:12;96024.97;;;4.78;24.85
73671;BME280;61968;48.178;11.566;2023-04-05T11:02:40;96021.44;;;4.85;25.16
73671;BME280;61968;48.178;11.566;2023-04-05T11:05:29;96010.34;;;5.05;24.85
73671;BME280;61968;48.178;11.566;2023-04-05T11:07:59;96006.09;;;5.04;23.90
73671;BME280;61968;48.178;11.566;2023-04-05T11:10:26;96007.91;;;5.03;23.80
73671;BME280;61968;48.178;11.566;2023-04-05T11:13:07;96004.16;;;4.91;23.49
73671;BME280;61968;48.178;11.566;2023-04-05T11:15:35;96005.34;;;4.88;23.72
73671;BME280;61968;48.178;11.566;2023-04-05T11:18:09;96011.16;;;5.05;24.70
73671;BME280;61968;48.178;11.566;2023-04-05T11:20:44;96005.88;;;5.27;24.64
73671;BME280;61968;48.178;11.566;2023-04-05T11:23:12;96004.69;;;5.29;24.28
73671;BME280;61968;48.178;11.566;2023-04-05T11:25:39;96003.06;;;5.28;23.65
73671;BME280;61968;48.178;11.566;2023-04-05T11:28:06;95999.47;;;5.29;24.25
73671;BME280;61968;48.178;11.566;2023-04-05T11:30:45;95989.84;;;5.43;24.62
73671;BME280;61968;48.178;11.566;2023-04-05T11:33:35;95991.41;;;5.59;24.65
73671;BME280;61968;48.178;11.566;2023-04-05T11:36:03;95992.91;;;5.75;24.50
73671;BME280;61968;48.178;11.566;2023-04-05T11:38:30;95993.81;;;5.95;24.17
73671;BME280;61968;48.178;11.566;2023-04-05T11:41:06;95992.59;;;5.98;23.55
73671;BME280;61968;48.178;11.566;2023-04-05T11:43:33;95993.63;;;5.97;23.92
73671;BME280;61968;48.178;11.566;2023-04-05T11:46:01;95996.63;;;5.94;23.41
73671;BME280;61968;48.178;11.566;2023-04-05T11:48:28;95989.53;;;5.88;22.68
73671;BME280;61968;48.178;11.566;2023-04-05T11:50:55;95989.91;;;5.84;23.42
73671;BME280;61968;48.178;11.566;2023-04-05T11:53:23;95983.84;;;5.77;23.85
73671;BME280;61968;48.178;11.566;2023-04-05T11:55:50;95976.03;;;5.91;23.04
73671;BME280;61968;48.178;11.566;2023-04-05T11:58:18;95978.59;;;5.77;23.11
73671;BME280;61968;48.178;11.566;2023-04-05T12:00:56;95983.50;;;5.94;23.26
73671;BME280;61968;48.178;11.566;2023-04-05T12:03:22;95975.47;;;6.02;22.86
73671;BME280;61968;48.178;11.566;2023-04-05T12:05:49;95982.06;;;5.91;22.75
73671;BME280;61968;48.178;11.566;2023-04-05T12:08:16;95974.03;;;5.99;23.01
73671;BME280;61968;48.178;11.566;2023-04-05T12:10:52;95970.81;;;6.04;23.76
73671;BME280;61968;48.178;11.566;2023-04-05T12:13:24;95976.78;;;6.19;23.72
73671;BME280;61968;48.178;11.566;2023-04-05T12:15:51;95984.72;;;6.33;23.01
73671;BME280;61968;48.178;11.566;2023-04-05T12:18:17;95971.03;;;6.44;22.30
73671;BME280;61968;48.178;11.566;2023-04-05T12:20:45;95966.34;;;6.39;22.24
73671;BME280;61968;48.178;11.566;2023-04-05T12:23:11;95965.88;;;6.22;23.09
73671;BME280;61968;48.178;11.566;2023-04-05T12:25:38;95968.81;;;6.47;23.55
73671;BME280;61968;48.178;11.566;2023-04-05T12:28:08;95963.16;;;6.64;23.01
73671;BME280;61968;48.178;11.566;2023-04-05T12:30:47;95961.31;;;6.51;23.24
73671;BME280;61968;48.178;11.566;2023-04-05T12:33:14;95963.78;;;6.72;23.10
73671;BME280;61968;48.178;11.566;2023-04-05T12:35:40;95961.38;;;6.71;23.46
73671;BME280;61968;48.178;11.566;2023-04-05T12:38:07;95959.94;;;6.68;22.86
73671;BME280;61968;48.178;11.566;2023-04-05T12:40:35;95968.47;;;6.90;23.25
73671;BME280;61968;48.178;11.566;2023-04-05T12:43:04;95960.19;;;6.93;22.42
73671;BME280;61968;48.178;11.566;2023-04-05T12:45:32;95959.56;;;6.85;22.81
73671;BME280;61968;48.178;11.566;2023-04-05T12:48:07;95961.38;;;6.78;22.48
73671;BME280;61968;48.178;11.566;2023-04-05T12:50:35;95960.78;;;6.89;23.37
73671;BME280;61968;48.178;11.566;2023-04-05T12:53:07;95956.75;;;6.93;23.19
73671;BME280;61968;48.178;11.566;2023-04-05T12:55:41;95959.59;;;7.05;22.04
73671;BME280;61968;48.178;11.566;2023-04-05T12:58:08;95951.88;;;7.23;22.31
73671;BME280;61968;48.178;11.566;2023-04-05T13:00:35;95951.06;;;7.29;21.34
73671;BME280;61968;48.178;11.566;2023-04-05T13:03:02;95948.22;;;7.24;21.45
73671;BME280;61968;48.178;11.566;2023-04-05T13:05:29;95942.97;;;7.24;21.48
73671;BME280;61968;48.178;11.566;2023-04-05T13:07:56;95951.28;;;7.41;21.43